Forside
METAR-TAF:

METAR-TAF

Lufthavne :

Flughafen Lübeck

Lübeck, Tyskland

Breddekreds: 53-49N, længdekreds: 010-42E, højde: 14 m

Aktuelle vejr

Denne rapport blev lavet for 28 minutter siden, kl. 09:20 UTC
Vind 5 kt fra varierende retninger
Temperatur 25°C
Fugtighed 69%
Tryk 1007 hPa
Sigt 10 km eller mere
ingen skyer under 1500m og ingen cumulonimbus

METAR: EDHL 160920Z VRB05KT CAVOK 25/19 Q1007

Tid: 11:48 (09:48 UTC)

Vejrudsigter

Denne rapport blev lavet for 1 time og 48 minutter siden, kl. 08:00 UTC
Foreløbig gælder fra 16 på 09 UTC til 16 på 18 UTC
Vind 4 kt fra vest
Sigt 10 km eller mere
ingen skyer under 1500m og ingen cumulonimbus
Sandsynlighed 30% :
Midlertidig
fra 16 på 13 UTC til 16 på 15 UTC
Brudte skyer i en højde af 4000 ft, Cumulonimbus.
tordenbyger, regn

TAF: EDHL 160800Z 1609/1618 26004KT CAVOK PROB30 TEMPO 1613/1615 TSRA BKN040CB

Vejrobservationer og prognoser fra mere end 4000 lufthavne (METAR og TAF).

De gule og røde prikker repræsenterer de meteorologiske stationer.

Flyt musen over at se navnet på stationen.

Så klik over at se vejr observationer og prognoser.

At skifte det kort: Klik på de grønne knapper med et sort kors for at zoome ind; på den grønne knap med en bindestreg for at zoome ud; eller på de grønne pile for tilstødende kort.


METAR-TAF: